RPC1898 RPLL-RPLC
Flight info
| Callsign | RPC1898 |
|---|---|
| Flight time | N/A |
| Altitude | 1000 |
| Route | RPLL RPLC |
| Aircraft | B412/L-VGD/A |
Departure
| Time | N/A |
|---|---|
| Airport | Ninoy Aquino International Airport (RPLL) |
Arrival
| Time | 2026-05-04 13:10 |
|---|---|
| Airport | Clark International Airport / Clark Air Base (RPLC) |
| Time | Latitude | Longitude | Altitude | Speed | Heading |
|---|---|---|---|---|---|
| 2026-05-04 12:24 | 14.51405 | 121.01804 | 79 ft | 0 kts | 134° |
| 2026-05-04 12:40 | 14.51407 | 121.01812 | 81 ft | 3 kts | 163° |
| 2026-05-04 12:40 | 14.51392 | 121.01808 | 87 ft | 4 kts | 342° |
| 2026-05-04 12:40 | 14.51400 | 121.01781 | 113 ft | 3 kts | 349° |
| 2026-05-04 12:41 | 14.51401 | 121.01758 | 223 ft | 9 kts | 333° |
| 2026-05-04 12:41 | 14.51563 | 121.01683 | 404 ft | 55 kts | 321° |
| 2026-05-04 12:41 | 14.51877 | 121.01226 | 373 ft | 92 kts | 308° |
| 2026-05-04 12:41 | 14.52277 | 121.00687 | 404 ft | 95 kts | 309° |
| 2026-05-04 12:42 | 14.52634 | 121.00087 | 390 ft | 103 kts | 299° |
| 2026-05-04 12:42 | 14.52924 | 120.99422 | 357 ft | 100 kts | 293° |
| 2026-05-04 12:42 | 14.53191 | 120.98763 | 354 ft | 97 kts | 293° |
| 2026-05-04 12:42 | 14.53467 | 120.98150 | 376 ft | 94 kts | 296° |
| 2026-05-04 12:43 | 14.53692 | 120.97500 | 334 ft | 100 kts | 282° |
| 2026-05-04 12:43 | 14.53786 | 120.96768 | 283 ft | 100 kts | 280° |
| 2026-05-04 12:43 | 14.53869 | 120.96110 | 386 ft | 82 kts | 282° |
| 2026-05-04 12:43 | 14.54082 | 120.95506 | 315 ft | 96 kts | 293° |
| 2026-05-04 12:44 | 14.54309 | 120.94844 | 288 ft | 97 kts | 292° |
| 2026-05-04 12:44 | 14.54585 | 120.94235 | 338 ft | 88 kts | 304° |
| 2026-05-04 12:44 | 14.54930 | 120.93699 | 351 ft | 89 kts | 303° |
| 2026-05-04 12:44 | 14.55252 | 120.93162 | 373 ft | 88 kts | 303° |
| 2026-05-04 12:45 | 14.55584 | 120.92655 | 392 ft | 91 kts | 307° |
| 2026-05-04 12:45 | 14.55892 | 120.92091 | 423 ft | 87 kts | 294° |
| 2026-05-04 12:45 | 14.56119 | 120.91494 | 412 ft | 94 kts | 291° |
| 2026-05-04 12:45 | 14.56428 | 120.90920 | 414 ft | 92 kts | 314° |
| 2026-05-04 12:46 | 14.56946 | 120.90550 | 401 ft | 91 kts | 340° |
| 2026-05-04 12:46 | 14.57619 | 120.90295 | 240 ft | 101 kts | 340° |
| 2026-05-04 12:46 | 14.58268 | 120.90069 | 218 ft | 97 kts | 343° |
| 2026-05-04 12:46 | 14.58923 | 120.90003 | 220 ft | 89 kts | 7° |
| 2026-05-04 12:47 | 14.59557 | 120.90017 | 189 ft | 94 kts | 346° |
| 2026-05-04 12:47 | 14.60141 | 120.89757 | 228 ft | 85 kts | 337° |
| 2026-05-04 12:47 | 14.60696 | 120.89571 | 250 ft | 85 kts | 353° |
| 2026-05-04 12:47 | 14.61295 | 120.89513 | 271 ft | 81 kts | 3° |
| 2026-05-04 12:48 | 14.61835 | 120.89572 | 349 ft | 73 kts | 15° |
| 2026-05-04 12:48 | 14.62345 | 120.89655 | 397 ft | 73 kts | 7° |
| 2026-05-04 12:48 | 14.62804 | 120.89616 | 500 ft | 61 kts | 8° |
| 2026-05-04 12:48 | 14.63268 | 120.89566 | 429 ft | 85 kts | 351° |
| 2026-05-04 12:49 | 14.63930 | 120.89337 | 227 ft | 103 kts | 343° |
| 2026-05-04 12:49 | 14.64567 | 120.89134 | 299 ft | 87 kts | 347° |
| 2026-05-04 12:49 | 14.65149 | 120.88986 | 350 ft | 81 kts | 352° |
| 2026-05-04 12:49 | 14.65553 | 120.88987 | 437 ft | 70 kts | 11° |
| 2026-05-04 12:50 | 14.65726 | 120.89014 | 446 ft | 71 kts | 11° |
| 2026-05-04 12:50 | 14.66209 | 120.89131 | 489 ft | 71 kts | 16° |
| 2026-05-04 12:50 | 14.66775 | 120.89220 | 409 ft | 88 kts | 6° |
| 2026-05-04 12:50 | 14.67388 | 120.89210 | 422 ft | 87 kts | 351° |
| 2026-05-04 12:51 | 14.67951 | 120.88991 | 470 ft | 83 kts | 332° |
| 2026-05-04 12:51 | 14.68436 | 120.88609 | 434 ft | 94 kts | 320° |
| 2026-05-04 12:51 | 14.68872 | 120.88079 | 404 ft | 96 kts | 302° |
| 2026-05-04 12:51 | 14.69217 | 120.87501 | 414 ft | 94 kts | 307° |
| 2026-05-04 12:52 | 14.69622 | 120.86977 | 422 ft | 94 kts | 307° |
| 2026-05-04 12:52 | 14.70020 | 120.86519 | 512 ft | 81 kts | 323° |
| 2026-05-04 12:52 | 14.70460 | 120.86101 | 510 ft | 87 kts | 319° |
| 2026-05-04 12:52 | 14.70938 | 120.85637 | 434 ft | 98 kts | 316° |
| 2026-05-04 12:53 | 14.71390 | 120.85097 | 398 ft | 100 kts | 308° |
| 2026-05-04 12:53 | 14.71817 | 120.84548 | 421 ft | 92 kts | 313° |
| 2026-05-04 12:53 | 14.72241 | 120.84022 | 389 ft | 96 kts | 309° |
| 2026-05-04 12:53 | 14.72654 | 120.83471 | 365 ft | 98 kts | 306° |
| 2026-05-04 12:54 | 14.73050 | 120.82883 | 321 ft | 101 kts | 306° |
| 2026-05-04 12:54 | 14.73441 | 120.82313 | 336 ft | 95 kts | 307° |
| 2026-05-04 12:54 | 14.73839 | 120.81772 | 350 ft | 92 kts | 311° |
| 2026-05-04 12:54 | 14.74265 | 120.81310 | 411 ft | 85 kts | 319° |
| 2026-05-04 12:55 | 14.74679 | 120.80887 | 458 ft | 84 kts | 316° |
| 2026-05-04 12:55 | 14.75089 | 120.80418 | 440 ft | 92 kts | 312° |
| 2026-05-04 12:55 | 14.75508 | 120.79880 | 391 ft | 98 kts | 308° |
| 2026-05-04 12:55 | 14.75895 | 120.79270 | 323 ft | 104 kts | 300° |
| 2026-05-04 12:56 | 14.76229 | 120.78631 | 333 ft | 97 kts | 300° |
| 2026-05-04 12:56 | 14.76540 | 120.78035 | 377 ft | 92 kts | 302° |
| 2026-05-04 12:56 | 14.76894 | 120.77489 | 414 ft | 87 kts | 310° |
| 2026-05-04 12:56 | 14.77283 | 120.76968 | 480 ft | 98 kts | 316° |
| 2026-05-04 12:57 | 14.77767 | 120.76396 | 476 ft | 113 kts | 316° |
| 2026-05-04 12:57 | 14.78291 | 120.75760 | 499 ft | 115 kts | 315° |
| 2026-05-04 12:57 | 14.78828 | 120.75156 | 578 ft | 111 kts | 320° |
| 2026-05-04 12:57 | 14.79477 | 120.74635 | 491 ft | 123 kts | 330° |
| 2026-05-04 12:58 | 14.80186 | 120.74145 | 446 ft | 125 kts | 329° |
| 2026-05-04 12:58 | 14.80889 | 120.73605 | 404 ft | 125 kts | 326° |
| 2026-05-04 12:58 | 14.81577 | 120.73036 | 361 ft | 125 kts | 325° |
| 2026-05-04 12:58 | 14.82261 | 120.72475 | 340 ft | 123 kts | 326° |
| 2026-05-04 12:59 | 14.82933 | 120.71915 | 323 ft | 122 kts | 324° |
| 2026-05-04 12:59 | 14.83572 | 120.71362 | 362 ft | 119 kts | 324° |
| 2026-05-04 12:59 | 14.84195 | 120.70809 | 375 ft | 119 kts | 323° |
| 2026-05-04 12:59 | 14.84831 | 120.70252 | 392 ft | 117 kts | 324° |
| 2026-05-04 13:00 | 14.85492 | 120.69704 | 316 ft | 126 kts | 326° |
| 2026-05-04 13:00 | 14.86184 | 120.69170 | 347 ft | 119 kts | 327° |
| 2026-05-04 13:00 | 14.86852 | 120.68663 | 368 ft | 117 kts | 328° |
| 2026-05-04 13:00 | 14.87504 | 120.68158 | 363 ft | 121 kts | 325° |
| 2026-05-04 13:01 | 14.88176 | 120.67625 | 351 ft | 120 kts | 325° |
| 2026-05-04 13:01 | 14.88845 | 120.67105 | 334 ft | 123 kts | 329° |
| 2026-05-04 13:01 | 14.89536 | 120.66595 | 330 ft | 121 kts | 327° |
| 2026-05-04 13:01 | 14.90204 | 120.66074 | 363 ft | 118 kts | 325° |
| 2026-05-04 13:02 | 14.90841 | 120.65548 | 411 ft | 115 kts | 326° |
| 2026-05-04 13:02 | 14.91505 | 120.65045 | 347 ft | 122 kts | 326° |
| 2026-05-04 13:02 | 14.92200 | 120.64545 | 345 ft | 119 kts | 328° |
| 2026-05-04 13:02 | 14.92894 | 120.64052 | 335 ft | 119 kts | 327° |
| 2026-05-04 13:03 | 14.93599 | 120.63580 | 309 ft | 120 kts | 331° |
| 2026-05-04 13:03 | 14.94319 | 120.63151 | 302 ft | 119 kts | 334° |
| 2026-05-04 13:03 | 14.95052 | 120.62766 | 318 ft | 117 kts | 335° |
| 2026-05-04 13:03 | 14.95776 | 120.62361 | 315 ft | 118 kts | 334° |
| 2026-05-04 13:04 | 14.96508 | 120.61940 | 292 ft | 119 kts | 332° |
| 2026-05-04 13:04 | 14.97207 | 120.61507 | 328 ft | 116 kts | 332° |
| 2026-05-04 13:04 | 14.97926 | 120.61067 | 297 ft | 119 kts | 332° |
| 2026-05-04 13:04 | 14.98671 | 120.60689 | 298 ft | 119 kts | 336° |
| 2026-05-04 13:05 | 14.99423 | 120.60344 | 331 ft | 113 kts | 339° |
| 2026-05-04 13:05 | 15.00163 | 120.60050 | 345 ft | 115 kts | 342° |
| 2026-05-04 13:05 | 15.00954 | 120.59801 | 313 ft | 117 kts | 346° |
| 2026-05-04 13:05 | 15.01737 | 120.59557 | 328 ft | 115 kts | 345° |
| 2026-05-04 13:06 | 15.02506 | 120.59315 | 354 ft | 116 kts | 345° |
| 2026-05-04 13:06 | 15.03279 | 120.59077 | 377 ft | 114 kts | 346° |
| 2026-05-04 13:06 | 15.04048 | 120.58862 | 415 ft | 114 kts | 346° |
| 2026-05-04 13:06 | 15.04831 | 120.58614 | 420 ft | 115 kts | 343° |
| 2026-05-04 13:07 | 15.05572 | 120.58348 | 468 ft | 113 kts | 342° |
| 2026-05-04 13:07 | 15.06338 | 120.58089 | 474 ft | 114 kts | 342° |
| 2026-05-04 13:07 | 15.07103 | 120.57854 | 505 ft | 113 kts | 345° |
| 2026-05-04 13:07 | 15.07873 | 120.57658 | 527 ft | 114 kts | 347° |
| 2026-05-04 13:08 | 15.08643 | 120.57459 | 564 ft | 112 kts | 346° |
| 2026-05-04 13:08 | 15.09478 | 120.57245 | 412 ft | 130 kts | 350° |
| 2026-05-04 13:08 | 15.10371 | 120.57115 | 460 ft | 126 kts | 356° |
| 2026-05-04 13:08 | 15.11249 | 120.57017 | 540 ft | 123 kts | 355° |
| 2026-05-04 13:09 | 15.12092 | 120.56870 | 644 ft | 122 kts | 352° |
| 2026-05-04 13:09 | 15.12887 | 120.56709 | 776 ft | 119 kts | 353° |
| 2026-05-04 13:09 | 15.13775 | 120.56490 | 629 ft | 133 kts | 343° |
| 2026-05-04 13:09 | 15.14630 | 120.56139 | 624 ft | 131 kts | 338° |
| 2026-05-04 13:10 | 15.15452 | 120.55745 | 639 ft | 130 kts | 336° |
| 2026-05-04 13:10 | 15.16177 | 120.55314 | 613 ft | 106 kts | 322° |
| 2026-05-04 13:10 | 15.16684 | 120.54920 | 569 ft | 72 kts | 313° |
| 2026-05-04 13:10 | 15.16937 | 120.54700 | 507 ft | 30 kts | 314° |
| 2026-05-04 13:11 | 15.17011 | 120.54572 | 482 ft | 13 kts | 21° |
| 2026-05-04 13:11 | 15.17061 | 120.54533 | 472 ft | 6 kts | 18° |
| 2026-05-04 13:11 | 15.17056 | 120.54513 | 469 ft | 0 kts | 32° |